createdAt,value
2023-03-11T00:00:23.892Z,9.745526
2023-03-11T00:01:23.897Z,9.745513
2023-03-11T00:02:23.954Z,9.745509
2023-03-11T00:03:23.858Z,9.745434
2023-03-11T00:04:23.846Z,9.745467
2023-03-11T00:05:23.862Z,9.745482
2023-03-11T00:06:23.865Z,9.745576
2023-03-11T00:07:23.826Z,9.745583
2023-03-11T00:08:23.828Z,9.745605
2023-03-11T00:09:23.818Z,9.745532
2023-03-11T00:10:23.799Z,9.745747
2023-03-11T00:11:24.824Z,9.745621
2023-03-11T00:12:23.800Z,9.745769
2023-03-11T00:13:23.801Z,9.745549
2023-03-11T00:14:23.778Z,9.745564
2023-03-11T00:15:23.765Z,9.745538
2023-03-11T00:16:23.827Z,9.745523
2023-03-11T00:17:23.754Z,9.745602
2023-03-11T00:18:23.750Z,9.745653
2023-03-11T00:19:23.732Z,9.745544
2023-03-11T00:20:23.734Z,9.745564
2023-03-11T00:21:23.752Z,9.744812
2023-03-11T00:22:23.707Z,9.744906
2023-03-11T00:23:23.705Z,9.745444
2023-03-11T00:24:23.695Z,9.744670
2023-03-11T00:25:23.692Z,9.745167
2023-03-11T00:26:23.711Z,9.745276
2023-03-11T00:27:23.669Z,9.744977
2023-03-11T00:28:23.684Z,9.744868
2023-03-11T00:29:23.663Z,9.745293
2023-03-11T00:30:23.663Z,9.745384
2023-03-11T00:31:23.663Z,9.745517
2023-03-11T00:32:23.654Z,9.745324
2023-03-11T00:33:23.623Z,9.745538
2023-03-11T00:34:23.624Z,9.745584
2023-03-11T00:35:23.603Z,9.745322
2023-03-11T00:36:23.618Z,9.745396
2023-03-11T00:37:23.583Z,9.745377
2023-03-11T00:38:23.588Z,9.745480
2023-03-11T00:39:23.564Z,9.745397
2023-03-11T00:40:23.578Z,9.745494
2023-03-11T00:41:23.577Z,9.745897
2023-03-11T00:42:23.546Z,9.745636
2023-03-11T00:43:23.537Z,9.745205
2023-03-11T00:44:23.528Z,9.745458
2023-03-11T00:45:23.518Z,9.745597
2023-03-11T00:46:23.566Z,9.745687
2023-03-11T00:47:23.509Z,9.745671
2023-03-11T00:48:23.498Z,9.745554
2023-03-11T00:49:23.490Z,9.745754
2023-03-11T00:50:23.488Z,9.745546
2023-03-11T00:51:23.500Z,9.745748
2023-03-11T00:52:23.467Z,9.745749
2023-03-11T00:53:23.459Z,9.746245
2023-03-11T00:54:23.448Z,9.745792
2023-03-11T00:55:23.449Z,9.745480
2023-03-11T00:56:23.465Z,9.745293
2023-03-11T00:57:23.423Z,9.745293
2023-03-11T00:58:23.418Z,9.745293
2023-03-11T00:59:23.407Z,9.745415
2023-03-11T01:00:23.392Z,9.745398
2023-03-11T01:01:23.435Z,9.745059
2023-03-11T01:02:23.386Z,9.745045
2023-03-11T01:03:23.380Z,9.745118
2023-03-11T01:04:23.410Z,9.745181
2023-03-11T01:05:23.382Z,9.745456
2023-03-11T01:06:24.583Z,9.745795
2023-03-11T01:07:23.360Z,9.745767
2023-03-11T01:08:23.341Z,9.745682
2023-03-11T01:09:23.330Z,9.745549
2023-03-11T01:10:23.330Z,9.746140
2023-03-11T01:11:23.338Z,9.746000
2023-03-11T01:12:23.302Z,9.745916
2023-03-11T01:13:23.296Z,9.746004
2023-03-11T01:14:23.297Z,9.745861
2023-03-11T01:15:23.293Z,9.745729
2023-03-11T01:16:23.392Z,9.745709
2023-03-11T01:17:23.292Z,9.745904
2023-03-11T01:18:23.258Z,9.745666
2023-03-11T01:19:23.253Z,9.745857
2023-03-11T01:20:23.257Z,9.745402
2023-03-11T01:21:23.273Z,9.745644
2023-03-11T01:22:23.234Z,9.745427
2023-03-11T01:23:23.233Z,9.745581
2023-03-11T01:24:23.209Z,9.745540
2023-03-11T01:25:23.207Z,9.745587
2023-03-11T01:26:23.194Z,9.745461
2023-03-11T01:27:23.219Z,9.745499
2023-03-11T01:28:23.186Z,9.745504
2023-03-11T01:29:23.171Z,9.745111
2023-03-11T01:30:23.167Z,9.745427
2023-03-11T01:31:23.210Z,9.745157
2023-03-11T01:32:23.229Z,9.745418
2023-03-11T01:33:23.150Z,9.745384
2023-03-11T01:34:23.137Z,9.745566
2023-03-11T01:35:23.128Z,9.745164
2023-03-11T01:36:23.125Z,9.745654
2023-03-11T01:37:23.145Z,9.745414
2023-03-11T01:38:23.119Z,9.745456
2023-03-11T01:39:23.106Z,9.745476
2023-03-11T01:40:23.098Z,9.745781
2023-03-11T01:41:23.083Z,9.746402
2023-03-11T01:42:23.108Z,9.745594
2023-03-11T01:43:23.070Z,9.745419
2023-03-11T01:44:23.065Z,9.745292
2023-03-11T01:45:23.047Z,9.745232
2023-03-11T01:46:23.094Z,9.745475
2023-03-11T01:47:23.063Z,9.746297
2023-03-11T01:48:23.034Z,9.745177
2023-03-11T01:49:23.013Z,9.745508
2023-03-11T01:50:23.018Z,9.745914
2023-03-11T01:51:23.015Z,9.745665
2023-03-11T01:52:23.027Z,9.745441
2023-03-11T01:53:22.993Z,9.745458
2023-03-11T01:54:22.987Z,9.745420
2023-03-11T01:55:22.976Z,9.745859
2023-03-11T01:56:22.965Z,9.746400
2023-03-11T01:57:22.983Z,9.745827
2023-03-11T01:58:22.946Z,9.745528
2023-03-11T01:59:22.945Z,9.745633
2023-03-11T02:00:22.923Z,9.745659
2023-03-11T02:01:22.953Z,9.745680
2023-03-11T02:02:22.944Z,9.745775
2023-03-11T02:03:22.907Z,9.745820
2023-03-11T02:04:22.897Z,9.745792
2023-03-11T02:05:22.893Z,9.745879
2023-03-11T02:06:22.899Z,9.745819
2023-03-11T02:07:22.892Z,9.745801
2023-03-11T02:08:22.869Z,9.745894
2023-03-11T02:09:22.860Z,9.745821
2023-03-11T02:10:22.865Z,9.745842
2023-03-11T02:11:22.845Z,9.745562
2023-03-11T02:12:22.864Z,9.745619
2023-03-11T02:13:22.831Z,9.745790
2023-03-11T02:14:22.836Z,9.745778
2023-03-11T02:15:22.821Z,9.745942
2023-03-11T02:16:22.854Z,9.745919
2023-03-11T02:17:22.840Z,9.745905
2023-03-11T02:18:22.799Z,9.745807
2023-03-11T02:19:22.788Z,9.746059
2023-03-11T02:20:22.783Z,9.745985
2023-03-11T02:21:22.776Z,9.745551
2023-03-11T02:22:22.790Z,9.745457
2023-03-11T02:23:22.765Z,9.745457
2023-03-11T02:24:22.750Z,9.745457
2023-03-11T02:25:22.749Z,9.745457
2023-03-11T02:26:22.740Z,9.745457
2023-03-11T02:27:22.759Z,9.745457
2023-03-11T02:28:22.720Z,9.745457
2023-03-11T02:29:22.712Z,9.746571
2023-03-11T02:30:22.707Z,9.746451
2023-03-11T02:31:22.737Z,9.746299
2023-03-11T02:32:22.753Z,9.746452
2023-03-11T02:33:22.684Z,9.746149
2023-03-11T02:34:22.676Z,9.745910
2023-03-11T02:35:22.676Z,9.746002
2023-03-11T02:36:22.667Z,9.746029
2023-03-11T02:37:22.663Z,9.746024
2023-03-11T02:38:22.681Z,9.745856
2023-03-11T02:39:22.641Z,9.745711
2023-03-11T02:40:22.640Z,9.745575
2023-03-11T02:41:22.635Z,9.746179
2023-03-11T02:42:22.631Z,9.745869
2023-03-11T02:43:22.640Z,9.745700
2023-03-11T02:44:22.611Z,9.745664
2023-03-11T02:45:22.599Z,9.745728
2023-03-11T02:46:22.618Z,9.745098
2023-03-11T02:47:22.584Z,9.745163
2023-03-11T02:48:22.601Z,9.745854
2023-03-11T02:49:22.578Z,9.745491
2023-03-11T02:50:22.565Z,9.745728
2023-03-11T02:51:22.552Z,9.746217
2023-03-11T02:52:22.550Z,9.745936
2023-03-11T02:53:22.563Z,9.745506
2023-03-11T02:54:22.548Z,9.745687
2023-03-11T02:55:22.525Z,9.745577
2023-03-11T02:56:22.520Z,9.745583
2023-03-11T02:57:22.519Z,9.745865
2023-03-11T02:58:22.530Z,9.745369
2023-03-11T02:59:22.506Z,9.745482
2023-03-11T03:00:22.488Z,9.746261
2023-03-11T03:01:22.475Z,9.746020
2023-03-11T03:02:22.479Z,9.745700
2023-03-11T03:03:22.484Z,9.745700
2023-03-11T03:04:22.502Z,9.745700
2023-03-11T03:05:22.454Z,9.745700
2023-03-11T03:06:22.462Z,9.745700
2023-03-11T03:07:22.435Z,9.745700
2023-03-11T03:08:22.460Z,9.745700
2023-03-11T03:09:22.426Z,9.745700
2023-03-11T03:10:22.418Z,9.745700
2023-03-11T03:11:22.421Z,9.745700
2023-03-11T03:12:22.398Z,9.745700
2023-03-11T03:13:22.413Z,9.745700
2023-03-11T03:14:22.383Z,9.744175
2023-03-11T03:15:22.380Z,9.744480
2023-03-11T03:16:22.443Z,9.744606
2023-03-11T03:17:22.417Z,9.744949
2023-03-11T03:18:22.382Z,9.745286
2023-03-11T03:19:22.344Z,9.744919
2023-03-11T03:20:22.341Z,9.745101
2023-03-11T03:21:22.332Z,9.745246
2023-03-11T03:22:22.321Z,9.745189
2023-03-11T03:23:22.341Z,9.745189
2023-03-11T03:24:22.307Z,9.745189
2023-03-11T03:25:22.305Z,9.745189
2023-03-11T03:26:22.302Z,9.745189
2023-03-11T03:27:22.288Z,9.745189
2023-03-11T03:28:22.308Z,9.745189
2023-03-11T03:29:22.269Z,9.745189
2023-03-11T03:30:22.263Z,9.745189
2023-03-11T03:31:22.324Z,9.745189
2023-03-11T03:32:22.294Z,9.745189
2023-03-11T03:33:22.257Z,9.745189
2023-03-11T03:34:22.232Z,9.745189
2023-03-11T03:35:22.228Z,9.745189
2023-03-11T03:36:22.218Z,9.745189
2023-03-11T03:37:22.214Z,9.745189
2023-03-11T03:38:22.219Z,9.745189
2023-03-11T03:39:22.195Z,9.745189
2023-03-11T03:40:22.193Z,9.745189
2023-03-11T03:41:22.182Z,9.745189
2023-03-11T03:42:22.183Z,9.745189
2023-03-11T03:43:22.191Z,9.745189
2023-03-11T03:44:22.155Z,9.745189
2023-03-11T03:45:22.155Z,9.745189
2023-03-11T03:46:22.238Z,9.745189
2023-03-11T03:47:22.136Z,9.745189
2023-03-11T03:48:22.150Z,9.745189
2023-03-11T03:49:22.124Z,9.745797
2023-03-11T03:50:22.108Z,9.745797
2023-03-11T03:51:22.099Z,9.746139
2023-03-11T03:52:22.099Z,9.745559
2023-03-11T03:53:22.108Z,9.745216
2023-03-11T03:54:22.074Z,9.745589
2023-03-11T03:55:22.073Z,9.745593
2023-03-11T03:56:22.069Z,9.745654
2023-03-11T03:57:22.054Z,9.745848
2023-03-11T03:58:22.091Z,9.745274
2023-03-11T03:59:22.041Z,9.745416
2023-03-11T04:00:22.027Z,9.745691
2023-03-11T04:01:22.037Z,9.745468
2023-03-11T04:02:22.122Z,9.745753
2023-03-11T04:03:22.062Z,9.745420
2023-03-11T04:04:22.954Z,9.745495
2023-03-11T04:05:22.011Z,9.745467
2023-03-11T04:06:21.995Z,9.745864
2023-03-11T04:07:21.980Z,9.745747
2023-03-11T04:08:21.993Z,9.745504
2023-03-11T04:09:21.973Z,9.745349
2023-03-11T04:10:21.955Z,9.745485
2023-03-11T04:11:21.963Z,9.745538
2023-03-11T04:12:21.944Z,9.745393
2023-03-11T04:13:21.961Z,9.745884
2023-03-11T04:14:21.938Z,9.745762
2023-03-11T04:15:21.918Z,9.745473
2023-03-11T04:16:21.968Z,9.745327
2023-03-11T04:17:21.908Z,9.745509
2023-03-11T04:18:21.926Z,9.745522
2023-03-11T04:19:21.896Z,9.745394
2023-03-11T04:20:21.891Z,9.745510
2023-03-11T04:21:21.910Z,9.745558
2023-03-11T04:22:21.876Z,9.745520
2023-03-11T04:23:21.901Z,9.745525
2023-03-11T04:24:21.860Z,9.745465
2023-03-11T04:25:21.849Z,9.745467
2023-03-11T04:26:21.841Z,9.745476
2023-03-11T04:27:21.845Z,9.745501
2023-03-11T04:28:21.938Z,9.745458
2023-03-11T04:29:21.817Z,9.745489
2023-03-11T04:30:21.812Z,9.745542
2023-03-11T04:31:21.855Z,9.745397
2023-03-11T04:32:21.803Z,9.745398
2023-03-11T04:33:21.812Z,9.745501
2023-03-11T04:34:21.775Z,9.745486
2023-03-11T04:35:21.773Z,9.745400
2023-03-11T04:36:21.764Z,9.745444
2023-03-11T04:37:21.757Z,9.745389
2023-03-11T04:38:21.792Z,9.745519
2023-03-11T04:39:21.750Z,9.745505
2023-03-11T04:40:21.728Z,9.745596
2023-03-11T04:41:21.734Z,9.745532
2023-03-11T04:42:21.734Z,9.745433
2023-03-11T04:43:21.713Z,9.745606
2023-03-11T04:44:21.735Z,9.745529
2023-03-11T04:45:21.698Z,9.745556
2023-03-11T04:46:21.753Z,9.745554
2023-03-11T04:47:21.700Z,9.745595
2023-03-11T04:48:21.709Z,9.745200
2023-03-11T04:49:21.661Z,9.745580
2023-03-11T04:50:21.656Z,9.745457
2023-03-11T04:51:21.663Z,9.745701
2023-03-11T04:52:21.641Z,9.745606
2023-03-11T04:53:21.634Z,9.745749
2023-03-11T04:54:21.649Z,9.744897
2023-03-11T04:55:21.624Z,9.745057
2023-03-11T04:56:21.614Z,9.745257
2023-03-11T04:57:21.614Z,9.745278
2023-03-11T04:58:21.593Z,9.745366
2023-03-11T04:59:21.613Z,9.745613
2023-03-11T05:00:21.581Z,9.745955
2023-03-11T05:01:21.601Z,9.745700
2023-03-11T05:02:21.567Z,9.745601
2023-03-11T05:03:21.676Z,9.745628
2023-03-11T05:04:21.649Z,9.745736
2023-03-11T05:05:21.553Z,9.745520
2023-03-11T05:06:21.549Z,9.745590
2023-03-11T05:07:21.534Z,9.745690
2023-03-11T05:08:21.530Z,9.745568
2023-03-11T05:09:21.549Z,9.745456
2023-03-11T05:10:21.516Z,9.745560
2023-03-11T05:11:21.506Z,9.745399
2023-03-11T05:12:21.494Z,9.745425
2023-03-11T05:13:21.494Z,9.745609
2023-03-11T05:14:21.501Z,9.745912
2023-03-11T05:15:21.473Z,9.745058
2023-03-11T05:16:21.560Z,9.745430
2023-03-11T05:17:21.460Z,9.745607
2023-03-11T05:18:21.447Z,9.745343
2023-03-11T05:19:22.472Z,9.745336
2023-03-11T05:20:21.438Z,9.745582
2023-03-11T05:21:21.432Z,9.745461
2023-03-11T05:22:21.439Z,9.745755
2023-03-11T05:23:21.418Z,9.745765
2023-03-11T05:24:21.442Z,9.745515
2023-03-11T05:25:21.409Z,9.745360
2023-03-11T05:26:21.392Z,9.745573
2023-03-11T05:27:21.451Z,9.745753
2023-03-11T05:28:21.384Z,9.745772
2023-03-11T05:29:21.395Z,9.745451
2023-03-11T05:30:21.392Z,9.745738
2023-03-11T05:31:21.462Z,9.746021
2023-03-11T05:32:21.368Z,9.745759
2023-03-11T05:33:21.338Z,9.745789
2023-03-11T05:34:21.350Z,9.745601
2023-03-11T05:35:21.357Z,9.745538
2023-03-11T05:36:21.317Z,9.745508
2023-03-11T05:37:21.312Z,9.745468
2023-03-11T05:38:21.299Z,9.745478
2023-03-11T05:39:21.322Z,9.745523
2023-03-11T05:40:21.291Z,9.745661
2023-03-11T05:41:21.283Z,9.745525
2023-03-11T05:42:21.624Z,9.745479
2023-03-11T05:43:22.266Z,9.745489
2023-03-11T05:44:21.285Z,9.745467
2023-03-11T05:45:21.254Z,9.745358
2023-03-11T05:46:21.263Z,9.745232
2023-03-11T05:47:21.240Z,9.745338
2023-03-11T05:48:21.234Z,9.745511
2023-03-11T05:49:21.261Z,9.745699
2023-03-11T05:50:21.216Z,9.745403
2023-03-11T05:51:21.213Z,9.745500
2023-03-11T05:52:21.204Z,9.745518
2023-03-11T05:53:21.205Z,9.745021
2023-03-11T05:54:21.210Z,9.745521
2023-03-11T05:55:21.188Z,9.745386
2023-03-11T05:56:21.171Z,9.745462
2023-03-11T05:57:21.169Z,9.745516
2023-03-11T05:58:21.280Z,9.745441
2023-03-11T05:59:21.188Z,9.745526
2023-03-11T06:00:21.146Z,9.745251
2023-03-11T06:01:21.137Z,9.745061
2023-03-11T06:02:21.135Z,9.745353
2023-03-11T06:03:21.127Z,9.745671
2023-03-11T06:04:21.212Z,9.745109
2023-03-11T06:05:21.139Z,9.745296
2023-03-11T06:06:21.106Z,9.745753
2023-03-11T06:07:21.094Z,9.745852
2023-03-11T06:08:21.107Z,9.745352
2023-03-11T06:09:21.104Z,9.745357
2023-03-11T06:10:21.073Z,9.745384
2023-03-11T06:11:21.074Z,9.744466
2023-03-11T06:12:21.057Z,9.745127
2023-03-11T06:13:21.043Z,9.745478
2023-03-11T06:14:21.068Z,9.744918
2023-03-11T06:15:21.037Z,9.745164
2023-03-11T06:16:21.105Z,9.745310
2023-03-11T06:17:21.022Z,9.745455
2023-03-11T06:18:21.010Z,9.745085
2023-03-11T06:19:21.062Z,9.745581
2023-03-11T06:20:20.995Z,9.745542
2023-03-11T06:21:20.993Z,9.745713
2023-03-11T06:22:20.978Z,9.746284
2023-03-11T06:23:20.975Z,9.745668
2023-03-11T06:24:20.991Z,9.745294
2023-03-11T06:25:20.950Z,9.745235
2023-03-11T06:26:20.977Z,9.745516
2023-03-11T06:27:20.947Z,9.745346
2023-03-11T06:28:20.934Z,9.745664
2023-03-11T06:29:20.947Z,9.745329
2023-03-11T06:30:20.920Z,9.745384
2023-03-11T06:31:20.970Z,9.745441
2023-03-11T06:32:20.962Z,9.745196
2023-03-11T06:33:20.895Z,9.745535
2023-03-11T06:34:20.913Z,9.745402
2023-03-11T06:35:20.876Z,9.744984
2023-03-11T06:36:20.889Z,9.744850
2023-03-11T06:37:20.867Z,9.745011
2023-03-11T06:38:20.855Z,9.745433
2023-03-11T06:39:20.911Z,9.745637
2023-03-11T06:40:20.841Z,9.745230
2023-03-11T06:41:20.832Z,9.745633
2023-03-11T06:42:20.822Z,9.745340
2023-03-11T06:43:20.817Z,9.745046
2023-03-11T06:44:20.835Z,9.745178
2023-03-11T06:45:20.916Z,9.744450
2023-03-11T06:46:21.866Z,9.744650
2023-03-11T06:47:20.788Z,9.744650
2023-03-11T06:48:20.774Z,9.744650
2023-03-11T06:49:20.794Z,9.745220
2023-03-11T06:50:20.906Z,9.744816
2023-03-11T06:51:20.751Z,9.744811
2023-03-11T06:52:20.754Z,9.745156
2023-03-11T06:53:20.734Z,9.745455
2023-03-11T06:54:20.904Z,9.745643
2023-03-11T06:55:20.725Z,9.745865
2023-03-11T06:56:20.718Z,9.745865
2023-03-11T06:57:20.712Z,9.745865
2023-03-11T06:58:20.700Z,9.745865
2023-03-11T06:59:20.719Z,9.745865
2023-03-11T07:00:20.684Z,9.745865
2023-03-11T07:01:20.784Z,9.745865
2023-03-11T07:02:20.662Z,9.745865
2023-03-11T07:03:20.660Z,9.745865
2023-03-11T07:04:20.710Z,9.745865
2023-03-11T07:05:20.647Z,9.745865
2023-03-11T07:06:20.635Z,9.745865
2023-03-11T07:07:20.653Z,9.745865
2023-03-11T07:08:20.629Z,9.745865
2023-03-11T07:09:20.639Z,9.745865
2023-03-11T07:10:20.605Z,9.745865
2023-03-11T07:11:20.598Z,9.745865
2023-03-11T07:12:20.591Z,9.745865
2023-03-11T07:13:20.582Z,9.745865
2023-03-11T07:14:20.612Z,9.745861
2023-03-11T07:15:20.579Z,9.745936
2023-03-11T07:16:20.724Z,9.745813
2023-03-11T07:17:20.552Z,9.745653
2023-03-11T07:18:21.098Z,9.745887
2023-03-11T07:19:20.916Z,9.745556
2023-03-11T07:20:20.537Z,9.745775
2023-03-11T07:21:20.560Z,9.745927
2023-03-11T07:22:20.515Z,9.745831
2023-03-11T07:23:20.500Z,9.745763
2023-03-11T07:24:21.019Z,9.745648
2023-03-11T07:25:20.492Z,9.745394
2023-03-11T07:26:20.484Z,9.745306
2023-03-11T07:27:20.881Z,9.745379
2023-03-11T07:28:20.471Z,9.745267
2023-03-11T07:29:21.093Z,9.745288
2023-03-11T07:30:20.703Z,9.744978
2023-03-11T07:31:20.701Z,9.745516
2023-03-11T07:32:20.471Z,9.745625
2023-03-11T07:33:20.809Z,9.745266
2023-03-11T07:34:20.403Z,9.745458
2023-03-11T07:35:21.432Z,9.745277
2023-03-11T07:36:20.400Z,9.745300
2023-03-11T07:37:20.396Z,9.745173
2023-03-11T07:38:20.957Z,9.745085
2023-03-11T07:39:20.386Z,9.745151
2023-03-11T07:40:20.406Z,9.745164
2023-03-11T07:41:20.564Z,9.745175
2023-03-11T07:42:20.694Z,9.745362
2023-03-11T07:43:21.007Z,9.745283
2023-03-11T07:44:20.458Z,9.745195
2023-03-11T07:45:20.364Z,9.745469
2023-03-11T07:46:20.335Z,9.745346
2023-03-11T07:47:20.814Z,9.745424
2023-03-11T07:48:20.673Z,9.745332
2023-03-11T07:49:20.316Z,9.745502
2023-03-11T07:50:20.311Z,9.745376
2023-03-11T07:51:20.299Z,9.745342
2023-03-11T07:52:20.276Z,9.745312
2023-03-11T07:53:20.263Z,9.745291
2023-03-11T07:54:20.262Z,9.745479
2023-03-11T07:55:20.276Z,9.745453
2023-03-11T07:56:20.235Z,9.745212
2023-03-11T07:57:20.234Z,9.745169
2023-03-11T07:58:20.227Z,9.745346
2023-03-11T07:59:20.218Z,9.745512
2023-03-11T08:00:20.237Z,9.745523
2023-03-11T08:01:20.211Z,9.745305
2023-03-11T08:02:20.251Z,9.745446
2023-03-11T08:03:20.234Z,9.745426
2023-03-11T08:04:20.178Z,9.745493
2023-03-11T08:05:20.191Z,9.745490
2023-03-11T08:06:20.169Z,9.745496
2023-03-11T08:07:20.157Z,9.745527
2023-03-11T08:08:20.132Z,9.745429
2023-03-11T08:09:21.144Z,9.745526
2023-03-11T08:10:20.157Z,9.745468
2023-03-11T08:11:20.129Z,9.745581
2023-03-11T08:12:20.112Z,9.745464
2023-03-11T08:13:20.104Z,9.745406
2023-03-11T08:14:20.099Z,9.745559
2023-03-11T08:15:20.117Z,9.745591
2023-03-11T08:16:20.084Z,9.745532
2023-03-11T08:17:20.076Z,9.745608
2023-03-11T08:18:20.067Z,9.745678
2023-03-11T08:19:20.055Z,9.745601
2023-03-11T08:20:20.077Z,9.745493
2023-03-11T08:21:20.038Z,9.745491
2023-03-11T08:22:20.037Z,9.745527
2023-03-11T08:23:20.028Z,9.745549
2023-03-11T08:24:20.033Z,9.745579
2023-03-11T08:25:20.038Z,9.745608
2023-03-11T08:26:20.000Z,9.745532
2023-03-11T08:27:19.999Z,9.745758
2023-03-11T08:28:19.995Z,9.745659
2023-03-11T08:29:19.985Z,9.745652
2023-03-11T08:30:19.998Z,9.745755
2023-03-11T08:31:20.025Z,9.745713
2023-03-11T08:32:19.982Z,9.745800
2023-03-11T08:33:19.947Z,9.745654
2023-03-11T08:34:19.945Z,9.745624
2023-03-11T08:35:19.954Z,9.745405
2023-03-11T08:36:19.918Z,9.745256
2023-03-11T08:37:19.916Z,9.745504
2023-03-11T08:38:19.912Z,9.745524
2023-03-11T08:39:19.914Z,9.745517
2023-03-11T08:40:19.923Z,9.745440
2023-03-11T08:41:19.876Z,9.745518
2023-03-11T08:42:19.867Z,9.745439
2023-03-11T08:43:19.864Z,9.745346
2023-03-11T08:44:19.853Z,9.745584
2023-03-11T08:45:19.878Z,9.745701
2023-03-11T08:46:19.937Z,9.745723
2023-03-11T08:47:19.840Z,9.745851
2023-03-11T08:48:19.826Z,9.745445
2023-03-11T08:49:19.815Z,9.745741
2023-03-11T08:50:19.834Z,9.745570
2023-03-11T08:51:19.802Z,9.745538
2023-03-11T08:52:19.792Z,9.745988
2023-03-11T08:53:19.787Z,9.745461
2023-03-11T08:54:19.776Z,9.745674
2023-03-11T08:55:19.791Z,9.745858
2023-03-11T08:56:19.783Z,9.745709
2023-03-11T08:57:19.752Z,9.745601
2023-03-11T08:58:19.748Z,9.745891
2023-03-11T08:59:19.731Z,9.745569
2023-03-11T09:00:19.747Z,9.745600
2023-03-11T09:01:19.721Z,9.745383
2023-03-11T09:02:19.741Z,9.745386
2023-03-11T09:03:19.708Z,9.745328
2023-03-11T09:04:19.701Z,9.745385
2023-03-11T09:05:19.711Z,9.744966
2023-03-11T09:06:19.676Z,9.745585
2023-03-11T09:07:19.676Z,9.745632
2023-03-11T09:08:19.665Z,9.745749
2023-03-11T09:09:19.654Z,9.745516
2023-03-11T09:10:19.681Z,9.745597
2023-03-11T09:11:19.645Z,9.745479
2023-03-11T09:12:19.633Z,9.745021
2023-03-11T09:13:19.623Z,9.745349
2023-03-11T09:14:19.626Z,9.745484
2023-03-11T09:15:19.636Z,9.745440
2023-03-11T09:16:19.717Z,9.745543
2023-03-11T09:17:19.591Z,9.745597
2023-03-11T09:18:19.589Z,9.745290
2023-03-11T09:19:19.584Z,9.745294
2023-03-11T09:20:19.607Z,9.745239
2023-03-11T09:21:19.598Z,9.745626
2023-03-11T09:22:19.564Z,9.745859
2023-03-11T09:23:19.558Z,9.745738
2023-03-11T09:24:19.548Z,9.745464
2023-03-11T09:25:19.558Z,9.745403
2023-03-11T09:26:19.526Z,9.745371
2023-03-11T09:27:19.516Z,9.745411
2023-03-11T09:28:19.517Z,9.745388
2023-03-11T09:29:19.508Z,9.745421
2023-03-11T09:30:19.520Z,9.745194
2023-03-11T09:31:19.568Z,9.745357
2023-03-11T09:32:19.506Z,9.745345
2023-03-11T09:33:19.478Z,9.745398
2023-03-11T09:34:19.471Z,9.745411
2023-03-11T09:35:19.504Z,9.745361
2023-03-11T09:36:19.456Z,9.745401
2023-03-11T09:37:19.451Z,9.745465
2023-03-11T09:38:19.424Z,9.745279
2023-03-11T09:39:20.423Z,9.745329
2023-03-11T09:40:19.462Z,9.745255
2023-03-11T09:41:19.412Z,9.745533
2023-03-11T09:42:19.396Z,9.745362
2023-03-11T09:43:20.389Z,9.745247
2023-03-11T09:44:19.395Z,9.745771
2023-03-11T09:45:19.402Z,9.745720
2023-03-11T09:46:20.382Z,9.745825
2023-03-11T09:47:19.362Z,9.745723
2023-03-11T09:48:21.761Z,9.745758
2023-03-11T09:49:19.346Z,9.745839
2023-03-11T09:50:19.362Z,9.745644
2023-03-11T09:51:19.332Z,9.745643
2023-03-11T09:52:19.319Z,9.745720
2023-03-11T09:53:19.322Z,9.745808
2023-03-11T09:54:19.303Z,9.745682
2023-03-11T09:55:19.320Z,9.745587
2023-03-11T09:56:19.297Z,9.745579
2023-03-11T09:57:19.299Z,9.745466
2023-03-11T09:58:19.276Z,9.745573
2023-03-11T09:59:19.275Z,9.745547
2023-03-11T10:00:19.291Z,9.745500
2023-03-11T10:01:19.249Z,9.745536
2023-03-11T10:02:19.364Z,9.745475
2023-03-11T10:03:19.294Z,9.745537
2023-03-11T10:04:19.218Z,9.745566
2023-03-11T10:05:20.266Z,9.745452
2023-03-11T10:06:19.212Z,9.745528
2023-03-11T10:07:19.202Z,9.745634
2023-03-11T10:08:19.195Z,9.745579
2023-03-11T10:09:19.191Z,9.745602
2023-03-11T10:10:19.199Z,9.745577
2023-03-11T10:11:19.193Z,9.745599
2023-03-11T10:12:19.192Z,9.745427
2023-03-11T10:13:19.167Z,9.745549
2023-03-11T10:14:19.151Z,9.745502
2023-03-11T10:15:19.142Z,9.745490
2023-03-11T10:16:19.230Z,9.745494
2023-03-11T10:17:19.131Z,9.745565
2023-03-11T10:18:19.123Z,9.745510
2023-03-11T10:19:19.100Z,9.745466
2023-03-11T10:20:19.108Z,9.745521
2023-03-11T10:21:19.123Z,9.745603
2023-03-11T10:22:19.087Z,9.745645
2023-03-11T10:23:19.089Z,9.745654
2023-03-11T10:24:19.093Z,9.745543
2023-03-11T10:25:19.062Z,9.745491
2023-03-11T10:26:19.082Z,9.745377
2023-03-11T10:27:19.048Z,9.745481
2023-03-11T10:28:19.041Z,9.745541
2023-03-11T10:29:19.031Z,9.745584
2023-03-11T10:30:19.023Z,9.745618
2023-03-11T10:31:19.168Z,9.745592
2023-03-11T10:32:19.048Z,9.745283
2023-03-11T10:33:19.010Z,9.745585
2023-03-11T10:34:18.990Z,9.745382
2023-03-11T10:35:18.990Z,9.745481
2023-03-11T10:36:19.002Z,9.745420
2023-03-11T10:37:18.966Z,9.745572
2023-03-11T10:38:18.960Z,9.745496
2023-03-11T10:39:18.948Z,9.745556
2023-03-11T10:40:18.937Z,9.745498
2023-03-11T10:41:18.961Z,9.745440
2023-03-11T10:42:18.936Z,9.745363
2023-03-11T10:43:18.920Z,9.745401
2023-03-11T10:44:18.916Z,9.745470
2023-03-11T10:45:18.902Z,9.745589
2023-03-11T10:46:19.000Z,9.745545
2023-03-11T10:47:18.897Z,9.745496
2023-03-11T10:48:18.875Z,9.745449
2023-03-11T10:49:18.897Z,9.745542
2023-03-11T10:50:18.882Z,9.745449
2023-03-11T10:51:18.878Z,9.745573
2023-03-11T10:52:18.855Z,9.745567
2023-03-11T10:53:18.841Z,9.745495
2023-03-11T10:54:18.837Z,9.745752
2023-03-11T10:55:18.823Z,9.745732
2023-03-11T10:56:18.845Z,9.745691
2023-03-11T10:57:18.804Z,9.745750
2023-03-11T10:58:18.796Z,9.745749
2023-03-11T10:59:18.799Z,9.745906
2023-03-11T11:00:18.879Z,9.746154
2023-03-11T11:01:18.870Z,9.746151
2023-03-11T11:02:18.771Z,9.745791
2023-03-11T11:03:18.764Z,9.745627
2023-03-11T11:04:18.787Z,9.745973
2023-03-11T11:05:18.774Z,9.745414
2023-03-11T11:06:18.766Z,9.745399
2023-03-11T11:07:18.742Z,9.745545
2023-03-11T11:08:18.734Z,9.745424
2023-03-11T11:09:18.714Z,9.745449
2023-03-11T11:10:18.760Z,9.745425
2023-03-11T11:11:18.726Z,9.745813
2023-03-11T11:12:18.700Z,9.745486
2023-03-11T11:13:18.693Z,9.745460
2023-03-11T11:14:18.680Z,9.745408
2023-03-11T11:15:18.669Z,9.745421
2023-03-11T11:16:18.860Z,9.745359
2023-03-11T11:17:18.676Z,9.745598
2023-03-11T11:18:18.643Z,9.745763
2023-03-11T11:19:18.765Z,9.745502
2023-03-11T11:20:18.655Z,9.745107
2023-03-11T11:21:18.650Z,9.745306
2023-03-11T11:22:18.614Z,9.745209
2023-03-11T11:23:18.608Z,9.745495
2023-03-11T11:24:18.600Z,9.745587
2023-03-11T11:25:18.621Z,9.745218
2023-03-11T11:26:18.663Z,9.745344
2023-03-11T11:27:18.604Z,9.745551
2023-03-11T11:28:18.566Z,9.745555
2023-03-11T11:29:18.558Z,9.745445
2023-03-11T11:30:18.622Z,9.745249
2023-03-11T11:31:18.588Z,9.745559
2023-03-11T11:32:18.592Z,9.745787
2023-03-11T11:33:18.528Z,9.745675
2023-03-11T11:34:18.532Z,9.744845
2023-03-11T11:35:18.565Z,9.745466
2023-03-11T11:36:18.510Z,9.745675
2023-03-11T11:37:18.529Z,9.745378
2023-03-11T11:38:18.491Z,9.745470
2023-03-11T11:39:18.480Z,9.745383
2023-03-11T11:40:18.542Z,9.745533
2023-03-11T11:41:18.478Z,9.745541
2023-03-11T11:42:18.486Z,9.745647
2023-03-11T11:43:18.463Z,9.746087
2023-03-11T11:44:18.448Z,9.746200